Time;durP1;ratioP1;P1;durP2;ratioP2;P2;SDS_P1;SDS_P2;PMS_P1;PMS_P2;Temp;Humidity;BMP_temperature;BMP_pressure;BME280_temperature;BME280_humidity;BME280_pressure;Samples;Min_cycle;Max_cycle;Signal;HPM_P1;HPM_P2
2021/12/29 00:00:26;;;;;;;6.30;1.43;;;5.20;99.90;;;;;;2121193;27;20235;-70
2021/12/29 00:01:27;;;;;;;6.20;1.85;;;5.20;99.90;;;;;;2121615;27;20174;-70
2021/12/29 00:02:28;;;;;;;3.93;1.03;;;5.20;99.90;;;;;;2121150;27;20173;-70
2021/12/29 00:03:28;;;;;;;6.80;1.33;;;5.20;99.90;;;;;;2119386;27;20928;-71
2021/12/29 00:04:31;;;;;;;3.40;1.00;;;5.20;99.90;;;;;;2121051;27;20162;-71
2021/12/29 00:05:32;;;;;;;6.32;1.75;;;5.20;99.90;;;;;;2121227;28;20565;-71
2021/12/29 00:06:33;;;;;;;5.20;1.13;;;5.20;99.90;;;;;;2121444;28;20264;-70
2021/12/29 00:07:34;;;;;;;4.53;1.03;;;5.10;99.90;;;;;;2121871;28;20170;-72
2021/12/29 00:08:34;;;;;;;5.17;1.30;;;5.10;99.90;;;;;;2121648;28;20166;-70
2021/12/29 00:09:37;;;;;;;5.40;1.40;;;5.10;99.90;;;;;;2121626;28;20268;-73
2021/12/29 00:10:38;;;;;;;4.00;1.17;;;5.10;99.90;;;;;;2121004;28;20238;-71
2021/12/29 00:11:40;;;;;;;5.27;1.30;;;5.20;99.90;;;;;;2121264;28;20319;-71
2021/12/29 00:12:46;;;;;;;2.97;1.17;;;5.20;99.90;;;;;;2121975;28;20162;-73
2021/12/29 00:13:47;;;;;;;9.32;1.63;;;5.20;99.90;;;;;;2121466;28;20506;-78
2021/12/29 00:14:48;;;;;;;6.27;1.63;;;5.10;99.90;;;;;;2122118;28;20174;-77
2021/12/29 00:15:56;;;;;;;4.50;1.60;;;5.10;99.90;;;;;;2122211;28;20606;-72
2021/12/29 00:16:58;;;;;;;3.85;1.25;;;5.10;99.90;;;;;;2122486;28;20176;-75
2021/12/29 00:17:59;;;;;;;6.63;1.45;;;5.10;99.90;;;;;;2122875;28;20241;-77
2021/12/29 00:19:00;;;;;;;6.22;1.20;;;5.10;99.90;;;;;;2113688;28;20174;-74
2021/12/29 00:20:03;;;;;;;3.25;1.20;;;5.10;99.90;;;;;;2113708;28;20205;-73
2021/12/29 00:21:06;;;;;;;9.95;1.60;;;5.10;99.90;;;;;;2123550;28;20170;-74
2021/12/29 00:22:07;;;;;;;3.75;1.15;;;5.10;99.90;;;;;;2123193;28;20178;-75
2021/12/29 00:23:08;;;;;;;2.00;1.00;;;5.10;99.90;;;;;;2121458;27;20163;-76
2021/12/29 00:24:08;;;;;;;3.50;1.27;;;5.10;99.90;;;;;;2122264;27;20173;-71
2021/12/29 00:25:10;;;;;;;4.03;1.13;;;5.10;99.90;;;;;;2121775;28;20172;-71
2021/12/29 00:26:11;;;;;;;4.60;1.20;;;5.10;99.90;;;;;;2121247;28;20189;-72
2021/12/29 00:27:12;;;;;;;7.53;1.85;;;5.10;99.90;;;;;;2121323;28;20181;-71
2021/12/29 00:28:14;;;;;;;8.03;1.67;;;5.10;99.90;;;;;;2121444;28;20273;-72
2021/12/29 00:29:15;;;;;;;8.27;1.20;;;5.10;99.90;;;;;;2119432;27;20179;-71
2021/12/29 00:30:15;;;;;;;5.70;1.30;;;5.10;99.90;;;;;;2115402;28;20197;-72
2021/12/29 00:31:16;;;;;;;5.53;1.27;;;5.10;99.90;;;;;;2115675;28;20205;-71
2021/12/29 00:32:17;;;;;;;2.83;1.23;;;5.10;99.90;;;;;;2116103;28;20649;-72
2021/12/29 00:33:18;;;;;;;3.37;1.37;;;5.10;99.90;;;;;;2115702;28;20184;-71
2021/12/29 00:34:20;;;;;;;9.30;1.30;;;5.10;99.90;;;;;;2107081;28;20175;-72
2021/12/29 00:35:20;;;;;;;5.95;0.90;;;5.10;99.90;;;;;;2106751;28;20409;-72
2021/12/29 00:36:21;;;;;;;5.87;1.40;;;5.10;99.90;;;;;;2115450;28;20170;-71
2021/12/29 00:37:22;;;;;;;6.63;1.63;;;5.10;99.90;;;;;;2116016;28;20182;-71
2021/12/29 00:38:23;;;;;;;6.20;1.20;;;5.10;99.90;;;;;;2115954;28;20233;-72
2021/12/29 00:39:24;;;;;;;4.03;0.98;;;5.10;99.90;;;;;;2115962;28;20166;-72
2021/12/29 00:40:25;;;;;;;6.87;1.23;;;5.10;99.90;;;;;;2115601;28;20530;-72
2021/12/29 00:41:25;;;;;;;2.07;1.00;;;5.10;99.90;;;;;;2115121;28;20178;-72
2021/12/29 00:42:26;;;;;;;5.23;1.13;;;5.10;99.90;;;;;;2115089;28;20171;-72
2021/12/29 00:43:27;;;;;;;3.40;1.30;;;5.10;99.90;;;;;;2115667;28;20681;-72
2021/12/29 00:44:30;;;;;;;5.73;1.30;;;5.10;99.90;;;;;;2115658;28;20200;-72
2021/12/29 00:45:32;;;;;;;5.50;1.55;;;5.10;99.90;;;;;;2115120;28;20167;-72
2021/12/29 00:46:36;;;;;;;5.75;1.20;;;5.10;99.90;;;;;;2107106;28;20179;-71
2021/12/29 00:47:38;;;;;;;4.30;1.52;;;5.00;99.90;;;;;;2107194;28;20163;-72
2021/12/29 00:48:44;;;;;;;3.97;1.30;;;5.10;99.90;;;;;;2115008;28;20722;-72
2021/12/29 00:49:46;;;;;;;5.07;1.13;;;5.10;99.90;;;;;;2114984;28;20691;-72
2021/12/29 00:50:47;;;;;;;2.92;0.98;;;5.00;99.90;;;;;;2115085;28;20194;-72
2021/12/29 00:51:49;;;;;;;4.03;1.27;;;5.10;99.90;;;;;;2114944;28;20174;-72
2021/12/29 00:52:49;;;;;;;6.75;1.00;;;5.00;99.90;;;;;;2106616;28;20179;-72
2021/12/29 00:53:50;;;;;;;5.07;1.03;;;5.00;99.90;;;;;;2115025;28;20257;-72
2021/12/29 00:54:51;;;;;;;5.10;1.23;;;5.00;99.90;;;;;;2114789;28;20171;-72
2021/12/29 00:55:52;;;;;;;6.18;1.35;;;5.00;99.90;;;;;;2106467;28;20205;-72
2021/12/29 00:56:53;;;;;;;3.63;1.00;;;5.00;99.90;;;;;;2106388;28;20179;-72
2021/12/29 00:57:54;;;;;;;6.00;1.20;;;5.00;99.90;;;;;;2106500;28;20199;-72
2021/12/29 00:58:54;;;;;;;2.83;0.97;;;5.00;99.90;;;;;;2114885;28;20179;-72
2021/12/29 00:59:56;;;;;;;2.70;1.10;;;5.00;99.90;;;;;;2115826;28;20174;-72
2021/12/29 01:00:58;;;;;;;5.95;1.27;;;5.00;99.90;;;;;;2115789;28;20285;-72
2021/12/29 01:01:59;;;;;;;2.30;0.82;;;5.00;99.90;;;;;;2114907;28;20193;-72
2021/12/29 01:03:00;;;;;;;5.63;1.00;;;5.00;99.90;;;;;;2106632;28;20175;-72
2021/12/29 01:04:02;;;;;;;3.40;0.87;;;5.00;99.90;;;;;;2114937;28;20206;-72
2021/12/29 01:05:04;;;;;;;2.60;0.80;;;5.00;99.90;;;;;;2114849;28;20166;-72
2021/12/29 01:06:06;;;;;;;2.58;0.63;;;5.00;99.90;;;;;;2106857;28;20697;-72
2021/12/29 01:07:07;;;;;;;3.42;1.00;;;5.00;99.90;;;;;;2106505;28;20175;-72
2021/12/29 01:08:08;;;;;;;4.93;1.00;;;5.00;99.90;;;;;;2114897;28;20181;-72
2021/12/29 01:09:08;;;;;;;3.00;0.80;;;4.90;99.90;;;;;;2114906;28;20630;-72
2021/12/29 01:10:10;;;;;;;1.53;0.87;;;5.00;99.90;;;;;;2106344;28;20455;-72
2021/12/29 01:11:12;;;;;;;2.35;0.70;;;5.00;99.90;;;;;;2106623;28;20175;-72
2021/12/29 01:12:13;;;;;;;5.25;1.20;;;4.90;99.90;;;;;;2114841;28;20198;-72
2021/12/29 01:13:19;;;;;;;2.57;0.90;;;4.90;99.90;;;;;;2115345;28;20191;-73
2021/12/29 01:14:22;;;;;;;4.15;0.75;;;4.90;99.90;;;;;;2115525;28;20257;-72
2021/12/29 01:15:32;;;;;;;2.25;0.77;;;4.90;99.90;;;;;;2114623;28;20716;-73
2021/12/29 01:17:34;;;;;;;2.13;0.80;;;4.90;99.90;;;;;;2114534;28;20194;-72
2021/12/29 01:18:38;;;;;;;1.07;0.70;;;4.90;99.90;;;;;;2106269;28;20171;-72
2021/12/29 01:19:39;;;;;;;4.03;1.10;;;4.90;99.90;;;;;;2106741;28;20243;-72
2021/12/29 01:20:40;;;;;;;3.07;0.77;;;4.90;99.90;;;;;;2114700;28;20202;-72
2021/12/29 01:21:43;;;;;;;1.38;0.70;;;4.90;99.90;;;;;;2114628;28;20178;-72
2021/12/29 01:22:44;;;;;;;2.28;0.90;;;4.90;99.90;;;;;;2106656;28;20190;-72
2021/12/29 01:23:44;;;;;;;5.37;1.10;;;4.90;99.90;;;;;;2114561;28;20175;-72
2021/12/29 01:24:46;;;;;;;3.70;0.70;;;5.00;99.90;;;;;;2115021;28;20177;-72
2021/12/29 01:25:46;;;;;;;6.00;0.80;;;5.00;99.90;;;;;;2115288;28;20182;-72
2021/12/29 01:26:49;;;;;;;3.93;0.90;;;5.00;99.90;;;;;;2115288;28;20210;-72
2021/12/29 01:27:50;;;;;;;3.72;1.00;;;5.00;99.90;;;;;;2114777;28;20178;-72
2021/12/29 01:28:50;;;;;;;4.10;0.73;;;5.00;99.90;;;;;;2106266;28;20606;-72
2021/12/29 01:29:51;;;;;;;2.37;0.87;;;5.00;99.90;;;;;;2114601;28;20262;-72
2021/12/29 01:30:52;;;;;;;2.33;0.77;;;5.00;99.90;;;;;;2115309;28;20562;-72
2021/12/29 01:31:53;;;;;;;4.82;0.90;;;5.00;99.90;;;;;;2114624;28;20170;-72
2021/12/29 01:32:54;;;;;;;2.20;0.80;;;5.00;99.90;;;;;;2114743;28;20204;-73
2021/12/29 01:33:55;;;;;;;3.10;0.80;;;5.00;99.90;;;;;;2115239;28;20649;-72
2021/12/29 01:34:56;;;;;;;1.83;0.82;;;5.00;99.90;;;;;;2115004;28;20190;-72
2021/12/29 01:35:56;;;;;;;6.50;1.20;;;5.00;99.90;;;;;;2115201;28;20214;-72
2021/12/29 01:36:57;;;;;;;5.47;1.30;;;5.00;99.90;;;;;;2115149;28;20275;-73
2021/12/29 01:37:58;;;;;;;3.13;0.70;;;5.00;99.90;;;;;;2114661;28;20202;-72
2021/12/29 01:39:00;;;;;;;1.93;0.60;;;5.00;99.90;;;;;;2114602;28;20170;-72
2021/12/29 01:40:03;;;;;;;2.88;0.90;;;5.00;99.90;;;;;;2115157;28;20163;-73
2021/12/29 01:41:03;;;;;;;2.55;0.90;;;5.10;99.90;;;;;;2113727;28;20202;-73
2021/12/29 01:42:04;;;;;;;4.73;0.90;;;5.10;99.90;;;;;;2105893;28;20167;-72
2021/12/29 01:43:08;;;;;;;2.00;1.03;;;5.10;99.90;;;;;;2097620;28;20638;-72
2021/12/29 01:44:12;;;;;;;2.97;0.77;;;5.10;99.90;;;;;;2098729;28;20171;-72
2021/12/29 01:45:13;;;;;;;3.55;1.10;;;5.10;99.90;;;;;;2106301;28;20167;-72
2021/12/29 01:46:14;;;;;;;3.05;0.70;;;5.10;99.90;;;;;;2106195;28;20167;-72
2021/12/29 01:47:29;;;;;;;2.97;0.70;;;5.10;99.90;;;;;;2106098;28;20171;-72
2021/12/29 01:48:29;;;;;;;2.03;0.60;;;5.10;99.90;;;;;;2114716;28;20166;-72
2021/12/29 01:49:31;;;;;;;2.90;0.90;;;5.10;99.90;;;;;;2114486;28;20712;-73
2021/12/29 01:50:33;;;;;;;4.70;0.88;;;5.20;99.90;;;;;;2114398;28;20595;-72
2021/12/29 01:51:36;;;;;;;3.25;1.40;;;5.20;99.90;;;;;;2114458;28;20189;-72
2021/12/29 01:52:39;;;;;;;6.88;0.80;;;5.20;99.90;;;;;;2114511;28;20205;-72
2021/12/29 01:53:47;;;;;;;3.38;0.93;;;5.10;99.90;;;;;;2115042;28;20271;-72
2021/12/29 01:54:48;;;;;;;3.83;1.00;;;5.10;99.90;;;;;;2114959;28;20247;-72
2021/12/29 01:55:51;;;;;;;5.95;0.98;;;5.10;99.90;;;;;;2114403;28;20683;-72
2021/12/29 01:56:56;;;;;;;5.65;0.98;;;5.10;99.90;;;;;;2106161;28;20179;-72
2021/12/29 01:57:58;;;;;;;1.80;0.70;;;5.10;99.90;;;;;;2106535;28;20282;-72
2021/12/29 01:58:58;;;;;;;1.95;1.08;;;5.20;99.90;;;;;;2106090;28;20198;-72
2021/12/29 02:00:09;;;;;;;3.10;1.07;;;5.20;99.90;;;;;;2105947;28;20229;-73
2021/12/29 02:01:10;;;;;;;6.63;1.30;;;5.20;99.90;;;;;;2114364;28;20167;-72
2021/12/29 02:02:14;;;;;;;3.23;1.07;;;5.20;99.90;;;;;;2115051;28;20228;-72
2021/12/29 02:03:14;;;;;;;6.88;1.25;;;5.20;99.90;;;;;;2114969;28;20171;-72
2021/12/29 02:04:15;;;;;;;3.87;0.90;;;5.20;99.90;;;;;;2115718;28;20230;-72
2021/12/29 02:05:16;;;;;;;1.70;0.97;;;5.20;99.90;;;;;;2112433;28;20249;-72
2021/12/29 02:06:17;;;;;;;3.80;1.13;;;5.20;99.90;;;;;;2106311;28;20170;-72
2021/12/29 02:07:18;;;;;;;4.60;1.20;;;5.20;99.90;;;;;;2106535;28;20167;-72
2021/12/29 02:08:22;;;;;;;5.13;1.23;;;5.20;99.90;;;;;;2105780;28;20174;-72
2021/12/29 02:09:23;;;;;;;3.28;1.05;;;5.20;99.90;;;;;;2098151;28;20213;-72
2021/12/29 02:10:24;;;;;;;4.27;1.13;;;5.20;99.90;;;;;;2098003;28;20281;-73
2021/12/29 02:11:29;;;;;;;2.08;0.70;;;5.20;99.90;;;;;;2105843;28;20207;-73
2021/12/29 02:12:30;;;;;;;5.70;1.10;;;5.20;99.90;;;;;;2106487;28;20190;-73
2021/12/29 02:13:31;;;;;;;2.00;0.80;;;5.20;99.90;;;;;;2105859;28;20175;-72
2021/12/29 02:14:33;;;;;;;2.43;0.90;;;5.20;99.90;;;;;;2105775;28;20207;-73
2021/12/29 02:15:34;;;;;;;4.05;0.73;;;5.20;99.90;;;;;;2106469;28;20179;-73
2021/12/29 02:16:35;;;;;;;5.25;1.05;;;5.20;99.90;;;;;;2105754;28;20555;-72
2021/12/29 02:17:36;;;;;;;2.43;0.90;;;5.20;99.90;;;;;;2105655;28;20182;-72
2021/12/29 02:18:38;;;;;;;5.22;0.90;;;5.30;99.90;;;;;;2106373;28;20167;-72
2021/12/29 02:19:45;;;;;;;3.83;0.70;;;5.30;99.90;;;;;;2106403;28;20175;-73
2021/12/29 02:20:50;;;;;;;5.70;1.30;;;5.30;99.90;;;;;;2105910;28;20179;-73
2021/12/29 02:23:11;;;;;;;4.18;1.15;;;5.30;99.90;;;;;;2105884;28;20174;-72
2021/12/29 02:23:35;;;;;;;1.58;0.88;;;5.20;99.90;;;;;;2092197;28;20192;-72
2021/12/29 02:24:39;;;;;;;2.83;0.90;;;5.20;99.90;;;;;;2102915;28;20258;-72
2021/12/29 02:25:50;;;;;;;3.97;1.02;;;5.30;99.90;;;;;;2106050;28;20183;-72
2021/12/29 02:26:51;;;;;;;3.28;0.60;;;5.30;99.90;;;;;;2105657;28;20175;-73
2021/12/29 02:27:54;;;;;;;2.38;0.85;;;5.30;99.90;;;;;;2105713;28;20254;-72
2021/12/29 02:28:56;;;;;;;5.63;1.17;;;5.30;99.90;;;;;;2105718;28;20171;-73
2021/12/29 02:29:57;;;;;;;4.43;0.80;;;5.30;99.90;;;;;;2106356;28;20194;-73
2021/12/29 02:30:59;;;;;;;2.43;1.13;;;5.30;99.90;;;;;;2105696;28;20179;-72
2021/12/29 02:32:01;;;;;;;3.30;0.90;;;5.30;99.90;;;;;;2105740;28;20178;-72
2021/12/29 02:33:03;;;;;;;3.63;1.00;;;5.30;99.90;;;;;;2105744;28;20786;-73
2021/12/29 02:34:07;;;;;;;2.20;0.68;;;5.30;99.90;;;;;;2105880;28;20179;-73
2021/12/29 02:35:09;;;;;;;1.80;0.70;;;5.30;99.90;;;;;;2111352;28;20253;-73
2021/12/29 02:36:10;;;;;;;2.95;1.00;;;5.30;99.90;;;;;;2114216;28;20209;-73
2021/12/29 02:37:18;;;;;;;2.20;1.00;;;5.30;99.90;;;;;;2105656;28;20171;-72
2021/12/29 02:38:27;;;;;;;1.85;0.80;;;5.30;99.90;;;;;;2114168;28;20210;-72
2021/12/29 02:39:31;;;;;;;2.50;0.68;;;5.30;99.90;;;;;;2114772;28;20181;-73
2021/12/29 02:40:32;;;;;;;1.52;0.70;;;5.30;99.90;;;;;;2114696;28;20253;-72
2021/12/29 02:41:33;;;;;;;1.50;0.70;;;5.30;99.90;;;;;;2114040;28;20170;-72
2021/12/29 02:42:40;;;;;;;1.30;0.50;;;5.30;99.90;;;;;;2105683;28;20167;-72
2021/12/29 02:43:41;;;;;;;3.25;0.68;;;5.30;99.90;;;;;;2106397;28;20179;-73
2021/12/29 02:44:42;;;;;;;3.53;0.77;;;5.30;99.90;;;;;;2113909;28;20178;-72
2021/12/29 02:45:48;;;;;;;0.50;0.50;;;5.30;99.90;;;;;;2114106;28;20159;-73
2021/12/29 02:46:49;;;;;;;2.38;0.60;;;5.40;99.90;;;;;;2114107;28;20174;-72
2021/12/29 02:47:50;;;;;;;1.17;0.97;;;5.40;99.90;;;;;;2106418;28;20179;-72
2021/12/29 02:48:59;;;;;;;3.83;0.80;;;5.40;99.90;;;;;;2114030;28;20167;-73
2021/12/29 02:50:00;;;;;;;1.92;0.70;;;5.40;99.90;;;;;;2114671;28;20171;-72
2021/12/29 02:51:04;;;;;;;1.83;0.77;;;5.40;99.90;;;;;;2105611;28;20171;-73
2021/12/29 02:52:06;;;;;;;3.10;0.60;;;5.40;99.90;;;;;;2098400;28;20206;-73
2021/12/29 02:53:09;;;;;;;2.50;0.68;;;5.40;99.90;;;;;;2105829;28;20174;-73
2021/12/29 02:54:10;;;;;;;0.68;0.55;;;5.40;99.90;;;;;;2114025;28;20174;-73
2021/12/29 02:55:12;;;;;;;4.53;0.80;;;5.40;99.90;;;;;;2114404;28;20258;-72
2021/12/29 02:56:13;;;;;;;4.20;0.80;;;5.40;99.90;;;;;;2114056;28;20686;-72
2021/12/29 02:57:14;;;;;;;4.40;0.77;;;5.40;99.90;;;;;;2113954;28;20209;-72
2021/12/29 02:58:14;;;;;;;1.30;0.80;;;5.40;99.90;;;;;;2114504;28;20583;-72
2021/12/29 02:59:16;;;;;;;3.27;1.00;;;5.40;99.90;;;;;;2114091;28;20178;-72
2021/12/29 03:00:17;;;;;;;3.10;0.73;;;5.40;99.90;;;;;;2105567;28;20190;-73
2021/12/29 03:01:19;;;;;;;1.42;0.63;;;5.40;99.90;;;;;;2105520;28;20182;-73
2021/12/29 03:02:20;;;;;;;1.17;0.50;;;5.40;99.90;;;;;;2105560;28;20269;-72
2021/12/29 03:03:25;;;;;;;2.40;0.60;;;5.40;99.90;;;;;;2105826;28;20181;-72
2021/12/29 03:04:26;;;;;;;4.82;0.82;;;5.40;99.90;;;;;;2106161;28;20167;-72
2021/12/29 03:05:26;;;;;;;3.90;0.90;;;5.40;99.90;;;;;;2105378;28;20237;-72
2021/12/29 03:06:27;;;;;;;3.10;0.70;;;5.40;99.90;;;;;;2113898;28;20592;-72
2021/12/29 03:07:28;;;;;;;4.50;0.70;;;5.40;99.90;;;;;;2114383;28;20582;-72
2021/12/29 03:08:29;;;;;;;2.73;0.70;;;5.40;99.90;;;;;;2114528;28;20178;-72
2021/12/29 03:09:30;;;;;;;3.57;0.83;;;5.40;99.90;;;;;;2114601;28;20171;-72
2021/12/29 03:10:31;;;;;;;1.95;0.80;;;5.40;99.90;;;;;;2113652;28;20250;-72
2021/12/29 03:11:32;;;;;;;1.97;0.60;;;5.40;99.90;;;;;;2114003;28;20182;-73
2021/12/29 03:12:33;;;;;;;2.58;0.90;;;5.40;99.90;;;;;;2113961;28;20206;-73
2021/12/29 03:13:36;;;;;;;1.17;0.70;;;5.40;99.90;;;;;;2105520;28;20248;-73
2021/12/29 03:14:37;;;;;;;1.63;0.80;;;5.40;99.90;;;;;;2113795;28;20227;-72
2021/12/29 03:15:38;;;;;;;4.33;0.80;;;5.40;99.90;;;;;;2114506;28;20832;-72
2021/12/29 03:16:39;;;;;;;1.75;0.80;;;5.50;99.90;;;;;;2113792;28;20644;-73
2021/12/29 03:17:40;;;;;;;3.57;0.60;;;5.50;99.90;;;;;;2113678;28;20174;-72
2021/12/29 03:18:42;;;;;;;3.07;0.93;;;5.50;99.90;;;;;;2113839;28;20762;-73
2021/12/29 03:19:42;;;;;;;3.30;0.85;;;5.50;99.90;;;;;;2105265;28;20190;-72
2021/12/29 03:20:44;;;;;;;0.97;0.50;;;5.40;99.90;;;;;;2105213;28;20255;-72
2021/12/29 03:21:45;;;;;;;3.55;0.85;;;5.50;99.90;;;;;;2105571;28;20170;-73
2021/12/29 03:22:46;;;;;;;3.28;0.85;;;5.50;99.90;;;;;;2097113;28;20182;-72
2021/12/29 03:23:48;;;;;;;2.23;0.70;;;5.50;99.90;;;;;;2105448;28;20301;-72
2021/12/29 03:24:49;;;;;;;1.40;0.70;;;5.50;99.90;;;;;;2114201;28;20614;-72
2021/12/29 03:25:51;;;;;;;1.83;1.00;;;5.50;99.90;;;;;;2114426;28;20179;-72
2021/12/29 03:26:52;;;;;;;2.70;0.80;;;5.50;99.90;;;;;;2114313;28;20179;-73
2021/12/29 03:27:59;;;;;;;2.97;1.10;;;5.50;99.90;;;;;;2114465;28;20175;-73
2021/12/29 03:29:00;;;;;;;3.30;0.60;;;5.50;99.90;;;;;;2113812;28;20196;-72
2021/12/29 03:30:03;;;;;;;1.97;0.70;;;5.50;99.90;;;;;;2106069;28;20204;-73
2021/12/29 03:31:04;;;;;;;4.55;0.90;;;5.50;99.90;;;;;;2105598;28;20182;-72
2021/12/29 03:32:08;;;;;;;1.63;1.08;;;5.50;99.90;;;;;;2097013;28;20176;-73
2021/12/29 03:33:09;;;;;;;4.72;0.73;;;5.50;99.90;;;;;;2098001;28;20598;-72
2021/12/29 03:34:10;;;;;;;3.47;0.68;;;5.50;99.90;;;;;;2113909;28;20166;-72
2021/12/29 03:35:11;;;;;;;2.63;0.80;;;5.50;99.90;;;;;;2113643;28;20303;-72
2021/12/29 03:36:13;;;;;;;2.70;0.60;;;5.50;99.90;;;;;;2105432;28;20212;-72
2021/12/29 03:37:14;;;;;;;2.40;0.70;;;5.40;99.90;;;;;;2113795;28;20186;-72
2021/12/29 03:38:20;;;;;;;1.63;0.63;;;5.50;99.90;;;;;;2114222;28;20233;-72
2021/12/29 03:39:23;;;;;;;2.88;0.80;;;5.50;99.90;;;;;;2114372;28;20589;-72
2021/12/29 03:40:24;;;;;;;0.70;0.60;;;5.50;99.90;;;;;;2113849;28;20214;-72
2021/12/29 03:41:25;;;;;;;4.50;0.90;;;5.50;99.90;;;;;;2113748;28;20174;-72
2021/12/29 03:42:26;;;;;;;4.03;1.20;;;5.50;99.90;;;;;;2114302;28;20165;-72
2021/12/29 03:43:28;;;;;;;2.43;0.80;;;5.50;99.90;;;;;;2114360;28;20170;-72
2021/12/29 03:44:29;;;;;;;4.10;1.20;;;5.60;99.90;;;;;;2113692;28;20171;-73
2021/12/29 03:45:30;;;;;;;2.73;0.80;;;5.60;99.90;;;;;;2113702;28;20178;-72
2021/12/29 03:46:33;;;;;;;3.28;0.75;;;5.60;99.90;;;;;;2113809;28;20197;-72
2021/12/29 03:47:34;;;;;;;2.90;0.70;;;5.60;99.90;;;;;;2105528;28;20167;-72
2021/12/29 03:48:38;;;;;;;3.13;1.00;;;5.60;99.90;;;;;;2113881;28;20177;-72
2021/12/29 03:49:38;;;;;;;1.73;0.80;;;5.60;99.90;;;;;;2105236;28;20192;-72
2021/12/29 03:50:41;;;;;;;1.57;0.90;;;5.60;99.90;;;;;;2105286;28;20274;-73
2021/12/29 03:51:42;;;;;;;1.73;0.70;;;5.60;99.90;;;;;;2113738;28;20165;-72
2021/12/29 03:52:42;;;;;;;0.80;0.60;;;5.50;99.90;;;;;;2114504;28;20166;-73
2021/12/29 03:53:43;;;;;;;2.67;0.87;;;5.60;99.90;;;;;;2113650;28;20250;-72
2021/12/29 03:54:44;;;;;;;2.15;0.70;;;5.60;99.90;;;;;;2113730;28;20170;-73
2021/12/29 03:55:48;;;;;;;1.23;0.60;;;5.60;99.90;;;;;;2114320;28;20174;-72
2021/12/29 03:56:49;;;;;;;3.35;0.60;;;5.60;99.90;;;;;;2113631;28;20227;-72
2021/12/29 03:57:50;;;;;;;3.63;0.80;;;5.60;99.90;;;;;;2105338;28;20281;-73
2021/12/29 03:58:50;;;;;;;2.60;0.90;;;5.60;99.90;;;;;;2113701;28;20167;-73
2021/12/29 03:59:51;;;;;;;4.37;1.00;;;5.60;99.90;;;;;;2114230;28;20641;-73
2021/12/29 04:00:58;;;;;;;3.07;0.73;;;5.60;99.90;;;;;;2113723;28;20751;-74
2021/12/29 04:02:00;;;;;;;2.10;0.80;;;5.50;99.90;;;;;;2113827;28;20222;-73
2021/12/29 04:03:02;;;;;;;2.38;0.80;;;5.60;99.90;;;;;;2113760;28;20170;-72
2021/12/29 04:04:02;;;;;;;3.40;0.80;;;5.50;99.90;;;;;;2096978;28;20291;-72
2021/12/29 04:05:05;;;;;;;1.90;0.80;;;5.60;99.90;;;;;;2106340;28;20163;-72
2021/12/29 04:06:05;;;;;;;1.45;0.63;;;5.60;99.90;;;;;;2106713;28;20696;-72
2021/12/29 04:07:06;;;;;;;5.87;1.00;;;5.50;99.90;;;;;;2106785;28;20175;-73
2021/12/29 04:08:07;;;;;;;3.90;0.80;;;5.50;99.90;;;;;;2115279;28;20174;-73
2021/12/29 04:09:08;;;;;;;2.78;0.60;;;5.50;99.90;;;;;;2109949;28;20243;-72
2021/12/29 04:10:10;;;;;;;2.30;0.83;;;5.60;99.90;;;;;;2107312;28;20654;-73
2021/12/29 04:11:10;;;;;;;3.30;1.00;;;5.50;99.90;;;;;;2106814;28;20171;-72
2021/12/29 04:12:11;;;;;;;2.60;0.70;;;5.50;99.90;;;;;;2106838;28;20178;-73
2021/12/29 04:13:12;;;;;;;1.90;0.73;;;5.50;99.90;;;;;;2106752;28;20171;-73
2021/12/29 04:14:13;;;;;;;3.20;0.70;;;5.60;99.90;;;;;;2106827;28;20284;-72
2021/12/29 04:15:15;;;;;;;1.27;0.63;;;5.50;99.90;;;;;;2107279;28;20209;-73
2021/12/29 04:16:18;;;;;;;1.10;0.55;;;5.50;99.90;;;;;;2106837;28;20190;-73
2021/12/29 04:17:24;;;;;;;2.50;0.70;;;5.50;99.90;;;;;;2106689;28;20186;-73
2021/12/29 04:18:30;;;;;;;1.08;0.55;;;5.60;99.90;;;;;;2106822;28;20213;-72
2021/12/29 04:19:40;;;;;;;4.00;0.60;;;5.60;99.90;;;;;;2106840;28;20182;-72
2021/12/29 04:20:55;;;;;;;0.75;0.43;;;5.60;99.90;;;;;;2107301;28;20657;-72
2021/12/29 04:21:58;;;;;;;2.65;0.77;;;5.60;99.90;;;;;;2107411;28;20174;-73
2021/12/29 04:22:59;;;;;;;2.65;0.80;;;5.60;99.90;;;;;;2106710;28;20551;-72
2021/12/29 04:24:00;;;;;;;3.40;0.60;;;5.60;99.90;;;;;;2106726;28;20210;-73
2021/12/29 04:25:01;;;;;;;4.37;0.60;;;5.50;99.90;;;;;;2106582;28;20172;-72
2021/12/29 04:26:05;;;;;;;5.03;0.90;;;5.50;99.90;;;;;;2106853;28;20171;-73
2021/12/29 04:27:06;;;;;;;2.42;0.70;;;5.50;99.90;;;;;;2098634;28;20176;-72
2021/12/29 04:28:13;;;;;;;2.35;0.88;;;5.50;99.90;;;;;;2106702;28;20534;-73
2021/12/29 04:29:14;;;;;;;3.45;0.80;;;5.50;99.90;;;;;;2106700;28;20178;-72
2021/12/29 04:30:15;;;;;;;4.10;1.00;;;5.60;99.90;;;;;;2106619;28;21308;-72
2021/12/29 04:31:16;;;;;;;2.40;0.53;;;5.60;99.90;;;;;;2107242;28;20179;-72
2021/12/29 04:32:18;;;;;;;2.13;0.60;;;5.50;99.90;;;;;;2106702;28;20175;-73
2021/12/29 04:33:20;;;;;;;2.15;0.73;;;5.50;99.90;;;;;;2106574;28;20195;-72
2021/12/29 04:34:20;;;;;;;1.92;0.60;;;5.50;99.90;;;;;;2114574;28;20651;-72
2021/12/29 04:35:22;;;;;;;0.93;0.43;;;5.50;99.90;;;;;;2114867;28;20174;-73
2021/12/29 04:36:26;;;;;;;3.55;0.57;;;5.50;99.90;;;;;;2115626;28;20232;-72
2021/12/29 04:37:27;;;;;;;0.70;0.60;;;5.60;99.90;;;;;;2115542;28;20185;-73
2021/12/29 04:38:27;;;;;;;0.80;0.60;;;5.60;99.90;;;;;;2115604;28;20586;-73
2021/12/29 04:39:28;;;;;;;4.43;1.10;;;5.60;99.90;;;;;;2115046;28;20178;-72
2021/12/29 04:40:29;;;;;;;1.10;0.70;;;5.60;99.90;;;;;;2115055;28;20178;-73
2021/12/29 04:41:29;;;;;;;1.20;0.60;;;5.60;99.90;;;;;;2114907;28;20163;-72
2021/12/29 04:42:30;;;;;;;1.90;0.70;;;5.60;99.90;;;;;;2106719;28;20167;-73
2021/12/29 04:43:31;;;;;;;3.87;0.73;;;5.60;99.90;;;;;;2107069;28;20167;-73
2021/12/29 04:44:32;;;;;;;4.80;0.80;;;5.70;99.90;;;;;;2106902;28;20528;-73
2021/12/29 04:45:32;;;;;;;2.83;0.83;;;5.60;99.90;;;;;;2107219;28;20256;-73
2021/12/29 04:46:39;;;;;;;2.17;0.60;;;5.60;99.90;;;;;;2115470;28;20190;-72
2021/12/29 04:47:42;;;;;;;2.42;0.73;;;5.60;99.90;;;;;;2115365;28;20222;-72
2021/12/29 04:48:58;;;;;;;2.83;1.00;;;5.60;99.90;;;;;;2115636;28;20174;-73
2021/12/29 04:50:02;;;;;;;1.92;0.60;;;5.60;99.90;;;;;;2115911;28;20540;-73
2021/12/29 04:51:12;;;;;;;2.20;0.77;;;5.60;99.90;;;;;;2116185;28;20182;-72
2021/12/29 04:52:13;;;;;;;3.47;0.80;;;5.60;99.90;;;;;;2115281;28;20186;-72
2021/12/29 04:53:14;;;;;;;1.57;0.70;;;5.60;99.90;;;;;;2115466;28;20166;-73
2021/12/29 04:54:15;;;;;;;1.50;0.70;;;5.60;99.90;;;;;;2116054;28;20234;-73
2021/12/29 04:55:16;;;;;;;2.88;0.95;;;5.60;99.90;;;;;;2115417;28;20205;-72
2021/12/29 04:56:17;;;;;;;3.70;0.50;;;5.60;99.90;;;;;;2115263;28;20315;-73
2021/12/29 04:57:18;;;;;;;4.63;0.70;;;5.60;99.90;;;;;;2115862;28;20178;-73
2021/12/29 04:58:21;;;;;;;1.73;0.60;;;5.60;99.90;;;;;;2116114;28;20620;-73
2021/12/29 04:59:23;;;;;;;0.77;0.70;;;5.60;99.90;;;;;;2115487;28;20166;-72
2021/12/29 05:00:26;;;;;;;1.73;0.70;;;5.60;99.90;;;;;;2107159;28;20244;-73
2021/12/29 05:01:27;;;;;;;1.58;0.60;;;5.60;99.90;;;;;;2115540;28;20171;-73
2021/12/29 05:02:28;;;;;;;2.07;0.87;;;5.60;99.90;;;;;;2106703;28;20179;-73
2021/12/29 05:03:29;;;;;;;2.63;0.83;;;5.60;99.90;;;;;;2098613;28;20871;-72
2021/12/29 05:04:32;;;;;;;4.03;0.90;;;5.50;99.90;;;;;;2115038;28;20166;-72
2021/12/29 05:09:12;;;;;;;2.05;0.60;;;5.50;99.90;;;;;;2115530;28;20555;-72
2021/12/29 05:10:13;;;;;;;1.30;0.60;;;5.50;99.90;;;;;;2115752;28;20202;-72
2021/12/29 05:11:15;;;;;;;2.70;0.70;;;5.50;99.90;;;;;;2115842;28;20170;-72
2021/12/29 05:12:15;;;;;;;0.90;0.50;;;5.50;99.90;;;;;;2115877;28;20223;-72
2021/12/29 05:13:16;;;;;;;1.33;0.63;;;5.50;99.90;;;;;;2115856;28;20813;-72
2021/12/29 05:14:17;;;;;;;1.93;0.67;;;5.50;99.90;;;;;;2115233;28;20174;-72
2021/12/29 05:15:18;;;;;;;3.27;0.70;;;5.50;99.90;;;;;;2115080;28;20645;-72
2021/12/29 05:16:18;;;;;;;1.53;0.50;;;5.50;99.90;;;;;;2115763;28;20181;-73
2021/12/29 05:17:19;;;;;;;2.53;0.80;;;5.60;99.90;;;;;;2115645;28;20173;-72
2021/12/29 05:18:20;;;;;;;4.87;0.70;;;5.60;99.90;;;;;;2115580;28;20293;-73
2021/12/29 05:19:20;;;;;;;0.93;0.53;;;5.60;99.90;;;;;;2115076;28;20174;-72
2021/12/29 05:20:21;;;;;;;1.87;0.73;;;5.60;99.90;;;;;;2115223;28;20221;-72
2021/12/29 05:21:22;;;;;;;3.87;0.80;;;5.50;99.90;;;;;;2115059;28;20190;-72
2021/12/29 05:22:23;;;;;;;1.27;0.52;;;5.50;99.90;;;;;;2115163;28;20175;-73
2021/12/29 05:23:25;;;;;;;1.17;0.70;;;5.50;99.90;;;;;;2115601;28;20526;-73
2021/12/29 05:24:25;;;;;;;0.77;0.60;;;5.50;99.90;;;;;;2115776;28;20177;-72
2021/12/29 05:25:27;;;;;;;2.80;0.70;;;5.50;99.90;;;;;;2115515;28;20198;-72
2021/12/29 05:26:28;;;;;;;1.20;0.90;;;5.50;99.90;;;;;;2115785;28;20663;-73
2021/12/29 05:27:28;;;;;;;0.73;0.70;;;5.50;99.90;;;;;;2115133;28;20163;-74
2021/12/29 05:28:29;;;;;;;1.23;0.53;;;5.50;99.90;;;;;;2115208;28;20223;-72
2021/12/29 05:29:30;;;;;;;1.27;0.40;;;5.50;99.90;;;;;;2115789;28;20660;-72
2021/12/29 05:30:30;;;;;;;10.50;1.00;;;5.50;99.90;;;;;;2114855;28;20186;-72
2021/12/29 05:31:31;;;;;;;2.50;0.50;;;5.50;99.90;;;;;;2114934;28;20178;-72
2021/12/29 05:32:32;;;;;;;0.53;0.40;;;5.50;99.90;;;;;;2115602;28;20178;-73